This is the latest recevied weather packets stored in our database for station/object SP2WM. If no packets are shown the sender has not sent any weather packets the latest 1 day(s).
| Time | Temp. | Humidity | Pressure | Rain* | Wind** | Luminosity | Snow |
|---|---|---|---|---|---|---|---|
| 1777990835 | 23.33° C | 60% | 1005 hPa | 0 mm | 0 m/s | - | - |
| 1777990242 | 22.78° C | 62% | 1005 hPa | 0 mm | 0 m/s | - | - |
| 1777989636 | 22.22° C | 63% | 1005 hPa | 0 mm | 0.45 m/s, 143° | - | - |
| 1777989038 | 21.67° C | 65% | 1005.2 hPa | 0 mm | 0 m/s | - | - |
| 1777988445 | 21.67° C | 65% | 1005.2 hPa | 1.02 mm | 0 m/s | - | - |
| 1777987844 | 22.22° C | 66% | 1005.3 hPa | 2.03 mm | 0 m/s | - | - |
| 1777987241 | 22.22° C | 66% | 1005.3 hPa | 2.03 mm | 0 m/s | - | - |
| 1777986631 | 22.78° C | 68% | 1005.4 hPa | 2.03 mm | 0 m/s | - | - |
| 1777986030 | 22.78° C | 75% | 1005.5 hPa | 2.03 mm | 0 m/s | - | - |
| 1777985427 | 23.89° C | 71% | 1005.5 hPa | 2.03 mm | 0 m/s | - | - |
| 1777984831 | 23.89° C | 65% | 1005.6 hPa | 1.02 mm | 0 m/s | - | - |
| 1777984229 | 25° C | 57% | 1005.7 hPa | 0 mm | 0 m/s | - | - |
| 1777983632 | 25° C | 53% | 1005.5 hPa | 0 mm | 0 m/s | - | - |
| 1777983037 | 25.56° C | 51% | 1005.7 hPa | 0 mm | 0 m/s | - | - |
| 1777982434 | 26.11° C | 50% | 1005.7 hPa | 0 mm | 0 m/s | - | - |
| 1777981832 | 26.67° C | 50% | 1005.8 hPa | 0 mm | 0 m/s | - | - |
| 1777981238 | 26.67° C | 48% | 1005.7 hPa | 0 mm | 0.89 m/s, 143° | - | - |
| 1777980640 | 26.11° C | 52% | 1005.9 hPa | 0 mm | 0 m/s | - | - |
| 1777980038 | 24.44° C | 56% | 1006 hPa | 0 mm | 0 m/s | - | - |
| 1777979425 | 22.78° C | 62% | 1006.1 hPa | 0 mm | 0 m/s | - | - |
| 1777978842 | 22.22° C | 61% | 1006.2 hPa | 0 mm | 0.45 m/s, 143° | - | - |
| 1777978238 | 22.22° C | 62% | 1006.1 hPa | 0 mm | 0 m/s | - | - |
| 1777977631 | 21.67° C | 63% | 1006.2 hPa | 0 mm | 0 m/s | - | - |
| 1777977030 | 21.67° C | 63% | 1006.3 hPa | 0 mm | 0.45 m/s, 143° | - | - |
| 1777976429 | 21.67° C | 64% | 1006.4 hPa | 0 mm | 0.45 m/s, 143° | - | - |
* Rain latest hour (hover to see other rain measurements)
** Current wind speed in m/s (hover to see current wind gust speed)